Aegean Princess — ZDID9 — position and weather

sailwx.info

Track history (hours):
 
Tides and Currents Weather Stations Pressure Air Temp Water Temp Dewpoint Dewpoint Depression Visibility Wind Speed Wind Dir Waves Ship Positions

Aegean Princess

Last reported at 2016-Dec-04 22:12 UTC. Time now 2016-Dec-07 16:23 UTC.
Position N 39°26' W 009°57'.

Length 100 m.

Type: Ship. MMSI: 236111476.

Date/timePositionNaut miles runAvg speedWind from/ knotsBaromVisibWave heightAir tempDewpointWater temp
2016-Dec-04 22:12N 39°26' W 009°57'6 9.3
2016-Dec-04 21:32N 39°19' W 009°57'9 8.9
2016-Dec-04 20:33N 39°11' W 009°57'9 8.8
2016-Dec-04 19:33N 39°02' W 009°57'9 9.4
2016-Dec-04 18:33N 38°52' W 009°57'10 9.8
2016-Dec-04 17:33N 38°43' W 009°57'9 9.5
2016-Dec-04 16:33N 38°34' W 009°53'10 9.6
2016-Dec-04 15:33N 38°25' W 009°48'9 9.1
2016-Dec-04 14:33N 38°17' W 009°43'9 9.3
2016-Dec-04 13:33N 38°07' W 009°41'19 9.4
2016-Dec-04 11:33N 37°49' W 009°37'9 9.0
2016-Dec-04 10:33N 37°40' W 009°35'216 8.0
2016-Dec-03 07:30N 35°58' W 005°37'9 8.3
2016-Dec-03 06:28N 35°59' W 005°27'7 8.0
2016-Dec-03 05:33N 35°56' W 005°19'2 1.6
2016-Dec-03 04:33N 35°54' W 005°19'0 0.0
2016-Dec-03 03:33N 35°54' W 005°19'0 0.0
2016-Dec-03 02:33N 35°54' W 005°19'0 0.0
2016-Dec-03 01:34N 35°54' W 005°19'0 0.0
2016-Dec-03 00:33N 35°54' W 005°19'0 0.0
2016-Dec-02 23:33N 35°54' W 005°19'0 0.0
2016-Dec-02 22:33N 35°54' W 005°19'0 0.0
2016-Dec-02 21:33N 35°54' W 005°19'0 0.0
2016-Dec-02 20:33N 35°54' W 005°19'0 0.0
2016-Dec-02 19:33N 35°54' W 005°19'0 0.0
2016-Dec-02 18:34N 35°54' W 005°19'0 0.0
2016-Dec-02 17:33N 35°54' W 005°19'0 0.0
2016-Dec-02 16:33N 35°54' W 005°19'0 0.0
2016-Dec-02 15:33N 35°54' W 005°19'0 0.0
2016-Dec-02 14:34N 35°54' W 005°19'0 0.0
2016-Dec-02 13:33N 35°54' W 005°19'0 0.0
2016-Dec-02 12:33N 35°54' W 005°19'0 0.0
2016-Dec-02 11:33N 35°54' W 005°19'0 0.0
2016-Dec-02 10:33N 35°54' W 005°19'1 1.2
2016-Dec-02 09:33N 35°55' W 005°19'  
Track history (hours):
 
Tides and Currents Weather Stations Pressure Air Temp Water Temp Dewpoint Dewpoint Depression Visibility Wind Speed Wind Dir Waves Ship Positions

Aegean Princess

Last reported at 2016-Dec-04 22:12 UTC. Time now 2016-Dec-07 16:23 UTC.
Position N 39°26' W 009°57'.

Length 100 m.

Type: Ship. MMSI: 236111476.

Date/timePositionNaut miles runAvg speedWind from/ knotsBaromVisibWave heightAir tempDewpointWater temp
2016-Dec-04 22:12N 39°26' W 009°57'6 9.3
2016-Dec-04 21:32N 39°19' W 009°57'9 8.9
2016-Dec-04 20:33N 39°11' W 009°57'9 8.8
2016-Dec-04 19:33N 39°02' W 009°57'9 9.4
2016-Dec-04 18:33N 38°52' W 009°57'10 9.8
2016-Dec-04 17:33N 38°43' W 009°57'9 9.5
2016-Dec-04 16:33N 38°34' W 009°53'10 9.6
2016-Dec-04 15:33N 38°25' W 009°48'9 9.1
2016-Dec-04 14:33N 38°17' W 009°43'9 9.3
2016-Dec-04 13:33N 38°07' W 009°41'19 9.4
2016-Dec-04 11:33N 37°49' W 009°37'9 9.0
2016-Dec-04 10:33N 37°40' W 009°35'216 8.0
2016-Dec-03 07:30N 35°58' W 005°37'9 8.3
2016-Dec-03 06:28N 35°59' W 005°27'7 8.0
2016-Dec-03 05:33N 35°56' W 005°19'2 1.6
2016-Dec-03 04:33N 35°54' W 005°19'0 0.0
2016-Dec-03 03:33N 35°54' W 005°19'0 0.0
2016-Dec-03 02:33N 35°54' W 005°19'0 0.0
2016-Dec-03 01:34N 35°54' W 005°19'0 0.0
2016-Dec-03 00:33N 35°54' W 005°19'0 0.0
2016-Dec-02 23:33N 35°54' W 005°19'0 0.0
2016-Dec-02 22:33N 35°54' W 005°19'0 0.0
2016-Dec-02 21:33N 35°54' W 005°19'0 0.0
2016-Dec-02 20:33N 35°54' W 005°19'0 0.0
2016-Dec-02 19:33N 35°54' W 005°19'0 0.0
2016-Dec-02 18:34N 35°54' W 005°19'0 0.0
2016-Dec-02 17:33N 35°54' W 005°19'0 0.0
2016-Dec-02 16:33N 35°54' W 005°19'0 0.0
2016-Dec-02 15:33N 35°54' W 005°19'0 0.0
2016-Dec-02 14:34N 35°54' W 005°19'0 0.0
2016-Dec-02 13:33N 35°54' W 005°19'0 0.0
2016-Dec-02 12:33N 35°54' W 005°19'0 0.0
2016-Dec-02 11:33N 35°54' W 005°19'0 0.0
2016-Dec-02 10:33N 35°54' W 005°19'1 1.2
2016-Dec-02 09:33N 35°55' W 005°19'  

Dump ship's entire track history